< Typhoon 198017 1980 Season Typhoon 198019 >
Typhoon 198018 (VERNON)
General InformationTrack Information on Google MapsDetailed Wind Information || Disaster Info.ResourceGoogle EarthGE AnimationAtom FeedGeoJSON
Detalied Best Track (Time Zone = UTC)
Year Month Day Hour Lat. Long. Pressure (hPa) Wind (kt) Class Image Chart
1980 9 27 00 12.0 161.0 1004 0 2 -- Chart
1980 9 27 06 12.2 160.2 1002 0 2 -- Chart
1980 9 27 12 12.4 159.5 1002 0 2 -- Chart
1980 9 27 18 12.6 158.8 1000 0 2 -- Chart
1980 9 28 00 12.8 158.1 998 0 2 -- Chart
1980 9 28 06 13.3 157.4 998 0 2 -- Chart
1980 9 28 12 13.9 156.7 996 0 2 -- Chart
1980 9 28 18 14.5 156.0 994 40 3 -- Chart
1980 9 29 00 15.0 155.7 990 45 3 -- Chart
1980 9 29 06 15.6 155.5 985 55 4 -- Chart
1980 9 29 12 16.5 155.1 980 55 4 -- Chart
1980 9 29 18 17.3 154.8 975 55 4 -- Chart
1980 9 30 00 18.1 154.4 970 65 5 -- Chart
1980 9 30 06 19.1 153.9 965 65 5 -- Chart
1980 9 30 12 20.0 153.0 960 70 5 -- Chart
1980 9 30 18 21.2 152.2 950 70 5 -- Chart
1980 10 1 00 22.3 151.7 950 70 5 -- Chart
1980 10 1 06 23.3 151.0 940 90 5 -- Chart
1980 10 1 12 24.4 150.1 940 90 5 -- Chart
1980 10 1 18 25.6 149.2 935 95 5 -- Chart
1980 10 2 00 26.4 148.6 940 90 5 -- Chart
1980 10 2 06 27.2 148.4 940 90 5 -- Chart
1980 10 2 12 28.3 148.5 940 90 5 -- Chart
1980 10 2 18 29.9 148.9 940 90 5 -- Chart
1980 10 3 00 31.5 149.6 940 90 5 -- Chart
1980 10 3 06 33.2 151.3 950 80 5 -- Chart
1980 10 3 12 35.1 154.0 960 65 5 -- Chart
1980 10 3 18 37.0 156.4 970 0 6 -- Chart
1980 10 4 00 39.0 159.0 980 0 6 -- Chart
1980 10 4 06 41.0 162.0 980 0 6 -- Chart
1980 10 4 12 43.0 165.0 980 0 6 -- Chart
1980 10 4 18 46.0 169.0 980 0 6 -- Chart
1980 10 5 00 48.0 173.0 976 0 6 -- Chart
1980 10 5 06 49.0 178.0 970 0 6 -- Chart
1980 10 5 12 49.0 183.0 968 0 6 -- Chart
Japan Meteorological Agency Best Track Data | Correction Date : 1992-10-21
< Typhoon 198017 1980 Season Typhoon 198019 >

Help